KDAN/DAN METAR and TAF weather

Enter ICAO airport designator
Station Type Date Time Source
KDAN METAR 2021/04/13 21:53 UTC NOAA

KDAN 132153Z AUTO VRB03KT 10SM CLR 22/06 A3002 RMK AO2 SLP156 T02220056


Station Type Date Time Source
KDAN Decoded METAR 2021/04/13 21:53 UTC NOAA

DANVILLE REGIONAL AIRPORT, VA, United States (KDAN) 36-34N 079-20W 175M
Apr 13, 2021 - 05:53 PM EDT / 2021.04.13 2153 UTC
Wind: Variable at 3 MPH (3 KT):0
Visibility: 10 mile(s):0
Sky conditions: clear
Temperature: 72.0 F (22.2 C)
Dew Point: 42.1 F (5.6 C)
Relative Humidity: 33%
Pressure (altimeter): 30.02 in. Hg (1016 hPa)
ob: KDAN 132153Z AUTO VRB03KT 10SM CLR 22/06 A3002 RMK AO2 SLP156 T02220056
cycle: 22

Station Type Date Time Source
KDAN TAF 2021/04/13 18:24 UTC NOAA

TAF KDAN 131721Z 1318/1418 33007G17KT P6SM SCT250
FM132100 33006KT P6SM BKN100
FM132300 VRB03KT P6SM SCT080
FM141100 16005KT P6SM BKN080
FM141600 21007KT P6SM OVC050

Example: see airport list